• Join FlightAware (Why Join?)
  • Login
  • US Flag 
10:45AM EDT


 

Airport Tracker/Info


-or-


 

Live Flight TrackerFlight Track Log ✈ DAL1118 ✈ 23-Apr-2013 ✈ KATL - KFAY

Flight Track Log - Related Links

Times and Time Zones

All times are in EDT time to prevent confusion due to time zone crossing. See the DAL1118 flight status page for this flight to view local times or setup timezone preferences in your user account.

Time Position Orientation Groundspeed Altitude Reporting Facility
EDT Latitude Longitude Course Direction KTS MPH feet Rate Location/Type
07:15PM 33.6333 -84.4000 81° East 162 186 2,300  Level Atlanta TRACON
07:16PM 33.6333 -84.3167 90° East 254 292 5,000 2,880 Climbing Atlanta TRACON
07:17PM 33.6333 -84.2333 90° East 299 344 8,100 2,580 Climbing Atlanta TRACON
07:18PM 33.7045 -84.0054 118° Southeast  Level FlightAware Approximate
07:19PM 33.6493 -83.8791 118° Southeast  Level FlightAware Approximate
07:19PM 33.6000 -84.0439 102° East 329 379 12,100  Level Atlanta Center
07:20PM 33.5934 -83.7534 121° Southeast  Level FlightAware Approximate
07:20PM 33.5814 -83.9092 99° East 382 440 14,400  Level Atlanta Center
07:21PM 33.5336 -83.6310 81° East  Level FlightAware Approximate
07:21PM 33.5603 -83.7622 100° East 428 493 17,800  Level Atlanta Center
07:22PM 33.5492 -83.6100 95° East 459 528 19,800 2,040 Climbing Atlanta Center
07:23PM 33.5675 -83.4531 82° East 464 534 21,900 2,340 Climbing Atlanta Center
07:24PM 33.5853 -83.2908 82° East 485 558 24,500 2,640 Climbing Atlanta Center
07:25PM 33.6031 -83.1283 82° East 485 558 27,200 2,220 Climbing Atlanta Center
07:26PM 33.6206 -82.9711 82° East 480 552 29,000 900 Climbing Atlanta Center
07:27PM 33.6400 -82.8111 82° East 475 547 29,000  Level Atlanta Center
07:28PM 33.6550 -82.6686 83° East 475 547 29,000  Level Atlanta Center
07:30PM 33.6869 -82.3233 84° East 491 565 29,000  Level Jacksonville Center
07:31PM 33.7069 -82.1686 81° East 485 558 29,000  Level Jacksonville Center
07:32PM 33.7394 -82.0133 76° East 479 551 29,000  Level Jacksonville Center
07:33PM 33.7717 -81.8733 74° East 479 551 29,000  Level Jacksonville Center
07:34PM 33.8058 -81.7228 75° East 473 544 29,000  Level Jacksonville Center
07:35PM 33.8586 -81.5747 67° East 473 544 29,000  Level Jacksonville Center
07:36PM 33.9178 -81.4336 63° Northeast 473 544 29,000  Level Jacksonville Center
07:37PM 33.9722 -81.2950 65° Northeast 467 537 29,000  Level Jacksonville Center
07:38PM 34.0311 -81.1536 63° Northeast 467 537 29,000  Level Jacksonville Center
07:39PM 34.0933 -80.9994 64° Northeast 467 537 29,000  Level Jacksonville Center
07:40PM 34.1517 -80.8600 63° Northeast 467 537 29,000  Level Jacksonville Center
07:41PM 34.2100 -80.7206 63° Northeast 467 537 29,000 -360 Level Jacksonville Center
07:42PM 34.2658 -80.5786 65° Northeast 467 537 28,300 -1,260 Descending Jacksonville Center
07:43PM 34.3258 -80.4386 63° Northeast 467 537 26,500 -2,100 Descending Jacksonville Center
07:44PM 34.3794 -80.2986 65° Northeast 467 537 24,100 -1,320 Descending Jacksonville Center
07:45PM 34.4367 -80.1561 64° Northeast 467 537 23,900 -1,440 Descending Jacksonville Center
07:46PM 34.4942 -80.0181 63° Northeast 467 537 21,300 -2,820 Descending Jacksonville Center
07:48PM 34.6050 -79.7300 65° Northeast 448 516 14,900 -2,700 Descending Washington Center
07:49PM 34.6578 -79.5964 64° Northeast 411 473 12,700 -1,800 Descending Washington Center
07:50PM 34.6964 -79.4972 65° Northeast 368 423 11,400 -1,500 Descending Washington Center
07:51PM 34.7375 -79.3906 65° Northeast 323 372 9,800 -1,800 Descending Washington Center
07:52PM 34.7672 -79.3086 66° East 301 346 7,800 -2,100 Descending Washington Center
07:53PM 34.8031 -79.2242 63° Northeast 290 334 5,700 -2,100 Descending Washington Center
07:54PM 34.8306 -79.1419 68° East 278 320 3,600 -1,380 Descending Washington Center
07:55PM 34.8600 -79.0672 64° Northeast 257 296 3,000 -540 Descending Washington Center
07:56PM 34.8847 -79.0050 64° Northeast 193 222 2,600 -480 Descending Washington Center
07:57PM 34.9111 -78.9556 57° Northeast 181 208 2,100 -540 Descending Washington Center